createdAt,value
2017-11-07T00:01:51.287Z,4.20
2017-11-07T00:04:18.835Z,4.21
2017-11-07T00:06:46.327Z,4.20
2017-11-07T00:09:13.820Z,4.24
2017-11-07T00:11:41.336Z,4.16
2017-11-07T00:14:08.835Z,4.13
2017-11-07T00:16:36.361Z,4.12
2017-11-07T00:19:03.905Z,4.11
2017-11-07T00:21:31.473Z,4.14
2017-11-07T00:23:58.989Z,4.27
2017-11-07T00:26:26.481Z,4.25
2017-11-07T00:28:54.022Z,4.27
2017-11-07T00:31:21.510Z,4.28
2017-11-07T00:33:49.005Z,4.29
2017-11-07T00:36:16.526Z,4.30
2017-11-07T00:38:44.013Z,4.35
2017-11-07T00:41:11.508Z,4.33
2017-11-07T00:43:39.020Z,4.32
2017-11-07T00:46:06.516Z,4.34
2017-11-07T00:48:34.162Z,4.35
2017-11-07T00:51:01.655Z,4.36
2017-11-07T00:53:29.220Z,4.38
2017-11-07T00:55:56.731Z,4.37
2017-11-07T00:58:24.332Z,4.37
2017-11-07T01:00:51.819Z,4.38
2017-11-07T01:03:19.319Z,4.37
2017-11-07T01:05:47.015Z,4.36
2017-11-07T01:08:14.577Z,4.39
2017-11-07T01:10:42.077Z,4.39
2017-11-07T01:13:09.796Z,4.38
2017-11-07T01:15:37.373Z,4.37
2017-11-07T01:18:04.868Z,4.34
2017-11-07T01:20:32.410Z,4.38
2017-11-07T01:22:59.898Z,4.41
2017-11-07T01:25:27.389Z,4.44
2017-11-07T01:27:55.088Z,4.43
2017-11-07T01:30:22.608Z,4.42
2017-11-07T01:32:50.094Z,4.45
2017-11-07T01:35:17.634Z,4.45
2017-11-07T01:37:45.200Z,4.43
2017-11-07T01:40:12.697Z,4.42
2017-11-07T01:42:40.240Z,4.38
2017-11-07T01:45:07.736Z,4.35
2017-11-07T01:47:35.311Z,4.32
2017-11-07T01:50:02.999Z,4.26
2017-11-07T01:52:30.491Z,4.25
2017-11-07T01:54:57.996Z,4.20
2017-11-07T01:57:25.512Z,4.14
2017-11-07T01:59:52.995Z,4.12
2017-11-07T02:02:20.577Z,4.12
2017-11-07T02:04:48.103Z,4.10
2017-11-07T02:07:15.602Z,4.10
2017-11-07T02:09:43.093Z,4.12
2017-11-07T02:12:10.708Z,4.13
2017-11-07T02:14:38.199Z,4.10
2017-11-07T02:17:05.730Z,4.06
2017-11-07T02:19:33.489Z,4.05
2017-11-07T02:22:01.043Z,4.05
2017-11-07T02:24:28.535Z,4.02
2017-11-07T02:26:56.081Z,4.01
2017-11-07T02:29:23.599Z,3.98
2017-11-07T02:31:51.084Z,3.94
2017-11-07T02:34:18.580Z,3.97
2017-11-07T02:36:46.395Z,3.99
2017-11-07T02:39:13.893Z,4.02
2017-11-07T02:41:41.423Z,4.01
2017-11-07T02:44:08.980Z,3.91
2017-11-07T02:46:36.469Z,3.90
2017-11-07T02:49:04.100Z,3.88
2017-11-07T02:51:31.597Z,3.79
2017-11-07T02:53:59.088Z,3.77
2017-11-07T02:56:26.600Z,3.70
2017-11-07T02:58:54.088Z,3.69
2017-11-07T03:01:21.709Z,3.68
2017-11-07T03:03:49.205Z,3.71
2017-11-07T03:06:16.686Z,3.67
2017-11-07T03:08:44.206Z,3.66
2017-11-07T03:11:11.696Z,3.62
2017-11-07T03:13:39.284Z,3.60
2017-11-07T03:16:06.772Z,3.60
2017-11-07T03:18:34.265Z,3.62
2017-11-07T03:21:01.797Z,3.57
2017-11-07T03:23:29.279Z,3.54
2017-11-07T03:25:56.772Z,3.58
2017-11-07T03:28:24.431Z,3.60
2017-11-07T03:30:51.923Z,3.60
2017-11-07T03:33:19.419Z,3.59
2017-11-07T03:35:46.944Z,3.53
2017-11-07T03:38:14.434Z,3.47
2017-11-07T03:40:41.929Z,3.40
2017-11-07T03:43:09.484Z,3.37
2017-11-07T03:45:36.978Z,3.33
2017-11-07T03:48:04.465Z,3.31
2017-11-07T03:50:32.002Z,3.32
2017-11-07T03:52:59.492Z,3.32
2017-11-07T03:55:26.976Z,3.28
2017-11-07T03:57:54.528Z,3.31
2017-11-07T04:00:22.088Z,3.26
2017-11-07T04:02:49.598Z,3.22
2017-11-07T04:05:17.132Z,3.19
2017-11-07T04:07:44.628Z,3.18
2017-11-07T04:10:12.225Z,3.20
2017-11-07T04:12:39.786Z,3.22
2017-11-07T04:15:07.347Z,3.18
2017-11-07T04:17:34.895Z,3.15
2017-11-07T04:20:02.556Z,3.11
2017-11-07T04:22:30.119Z,3.06
2017-11-07T04:24:57.684Z,3.05
2017-11-07T04:27:25.224Z,3.04
2017-11-07T04:29:52.810Z,3.02
2017-11-07T04:32:20.414Z,2.99
2017-11-07T04:34:47.954Z,2.95
2017-11-07T04:37:15.448Z,2.93
2017-11-07T04:39:42.963Z,2.91
2017-11-07T04:42:10.591Z,2.90
2017-11-07T04:44:38.256Z,2.89
2017-11-07T04:47:05.747Z,2.87
2017-11-07T04:49:33.266Z,2.86
2017-11-07T04:52:00.828Z,2.87
2017-11-07T04:54:28.323Z,2.89
2017-11-07T04:56:55.855Z,2.91
2017-11-07T04:59:23.343Z,2.94
2017-11-07T05:01:51.408Z,2.92
2017-11-07T05:04:18.921Z,2.85
2017-11-07T05:06:46.461Z,2.83
2017-11-07T05:09:14.053Z,2.82
2017-11-07T05:11:41.539Z,2.80
2017-11-07T05:14:09.057Z,2.79
2017-11-07T05:16:36.552Z,2.83
2017-11-07T05:19:04.045Z,2.81
2017-11-07T05:21:31.604Z,2.78
2017-11-07T05:23:59.123Z,2.79
2017-11-07T05:26:26.659Z,2.75
2017-11-07T05:28:54.241Z,2.83
2017-11-07T05:31:21.784Z,2.88
2017-11-07T05:33:49.344Z,2.83
2017-11-07T05:36:16.865Z,2.78
2017-11-07T05:38:44.362Z,2.79
2017-11-07T05:41:11.905Z,2.73
2017-11-07T05:43:39.455Z,2.72
2017-11-07T05:46:06.951Z,2.73
2017-11-07T05:48:34.489Z,2.74
2017-11-07T05:51:01.980Z,2.74
2017-11-07T05:53:29.511Z,2.76
2017-11-07T05:55:57.071Z,2.75
2017-11-07T05:58:24.628Z,2.75
2017-11-07T06:00:52.184Z,2.74
2017-11-07T06:03:19.749Z,2.70
2017-11-07T06:05:47.309Z,2.69
2017-11-07T06:08:14.822Z,2.68
2017-11-07T06:10:42.327Z,2.68
2017-11-07T06:13:09.846Z,2.69
2017-11-07T06:15:37.373Z,2.68
2017-11-07T06:18:04.855Z,2.67
2017-11-07T06:20:32.359Z,2.69
2017-11-07T06:23:00.141Z,2.69
2017-11-07T06:25:27.672Z,2.77
2017-11-07T06:27:55.236Z,2.82
2017-11-07T06:30:22.771Z,2.84
2017-11-07T06:32:50.257Z,2.89
2017-11-07T06:35:17.750Z,2.94
2017-11-07T06:37:45.276Z,2.95
2017-11-07T06:40:12.760Z,2.97
2017-11-07T06:42:40.243Z,2.94
2017-11-07T06:45:07.948Z,2.97
2017-11-07T06:47:35.507Z,2.98
2017-11-07T06:50:02.993Z,3.00
2017-11-07T06:52:30.730Z,3.04
2017-11-07T06:54:58.289Z,3.06
2017-11-07T06:57:25.852Z,3.08
2017-11-07T06:59:53.514Z,3.12
2017-11-07T07:02:20.999Z,3.14
2017-11-07T07:04:48.478Z,3.17
2017-11-07T07:07:16.019Z,3.18
2017-11-07T07:09:43.510Z,3.23
2017-11-07T07:12:11.002Z,3.30
2017-11-07T07:14:38.553Z,3.35
2017-11-07T07:17:06.045Z,3.44
2017-11-07T07:19:33.526Z,3.48
2017-11-07T07:22:01.050Z,3.55
2017-11-07T07:24:28.537Z,3.64
2017-11-07T07:26:56.149Z,3.72
2017-11-07T07:29:23.682Z,3.79
2017-11-07T07:31:51.170Z,3.84
2017-11-07T07:34:18.669Z,3.92
2017-11-07T07:36:46.190Z,4.01
2017-11-07T07:39:13.686Z,4.10
2017-11-07T07:41:41.201Z,4.16
2017-11-07T07:44:08.744Z,4.22
2017-11-07T07:46:36.221Z,4.27
2017-11-07T07:49:03.702Z,4.32
2017-11-07T07:51:31.342Z,4.38
2017-11-07T07:53:58.828Z,4.45
2017-11-07T07:56:26.315Z,4.57
2017-11-07T07:58:53.856Z,4.66
2017-11-07T08:01:21.335Z,4.75
2017-11-07T08:03:48.864Z,4.85
2017-11-07T08:06:16.593Z,4.92
2017-11-07T08:08:44.086Z,4.99
2017-11-07T08:11:11.609Z,5.07
2017-11-07T08:13:39.131Z,5.15
2017-11-07T08:16:06.627Z,5.24
2017-11-07T08:18:34.172Z,5.31
2017-11-07T08:21:01.730Z,5.35
2017-11-07T08:23:29.219Z,5.41
2017-11-07T08:25:56.778Z,5.46
2017-11-07T08:28:24.296Z,5.55
2017-11-07T08:30:51.787Z,5.63
2017-11-07T08:33:19.314Z,5.74
2017-11-07T08:35:46.826Z,5.84
2017-11-07T08:38:14.313Z,5.90
2017-11-07T08:40:41.823Z,5.95
2017-11-07T08:43:09.365Z,6.03
2017-11-07T08:45:36.916Z,6.07
2017-11-07T08:48:04.400Z,6.14
2017-11-07T08:50:31.936Z,6.25
2017-11-07T08:52:59.504Z,6.28
2017-11-07T08:55:26.993Z,6.29
2017-11-07T08:57:54.521Z,6.31
2017-11-07T09:00:22.013Z,6.34
2017-11-07T09:02:49.555Z,6.42
2017-11-07T09:05:17.142Z,6.54
2017-11-07T09:07:44.621Z,6.66
2017-11-07T09:10:14.476Z,6.78
2017-11-07T09:12:42.004Z,6.83
2017-11-07T09:15:09.486Z,6.87
2017-11-07T09:17:36.974Z,6.90
2017-11-07T09:20:04.596Z,6.86
2017-11-07T09:22:32.136Z,6.89
2017-11-07T09:24:59.633Z,6.93
2017-11-07T09:27:27.126Z,6.98
2017-11-07T09:29:54.660Z,7.08
2017-11-07T09:32:22.139Z,7.12
2017-11-07T09:34:49.622Z,7.20
2017-11-07T09:37:17.148Z,7.25
2017-11-07T09:39:44.655Z,7.33
2017-11-07T09:42:12.139Z,7.37
2017-11-07T09:44:39.660Z,7.40
2017-11-07T09:47:07.205Z,7.45
2017-11-07T09:49:34.695Z,7.52
2017-11-07T09:52:02.255Z,7.58
2017-11-07T09:54:29.744Z,7.62
2017-11-07T09:56:57.291Z,7.68
2017-11-07T09:59:24.828Z,7.74
2017-11-07T10:01:52.322Z,7.96
2017-11-07T10:04:19.819Z,8.04
2017-11-07T10:06:47.352Z,8.13
2017-11-07T10:09:14.831Z,8.13
2017-11-07T10:11:42.311Z,8.13
2017-11-07T10:14:09.846Z,8.26
2017-11-07T10:16:37.334Z,8.24
2017-11-07T10:19:04.898Z,8.37
2017-11-07T10:21:32.554Z,8.38
2017-11-07T10:24:00.070Z,8.43
2017-11-07T10:26:27.560Z,8.61
2017-11-07T10:28:55.112Z,8.74
2017-11-07T10:31:22.601Z,8.70
2017-11-07T10:33:50.142Z,8.76
2017-11-07T10:36:17.659Z,8.86
2017-11-07T10:38:45.140Z,8.96
2017-11-07T10:41:12.630Z,9.01
2017-11-07T10:43:40.141Z,9.06
2017-11-07T10:46:07.626Z,9.13
2017-11-07T10:48:35.291Z,9.17
2017-11-07T10:51:02.769Z,9.10
2017-11-07T10:53:30.249Z,8.99
2017-11-07T10:55:57.783Z,9.15
2017-11-07T10:58:25.332Z,9.25
2017-11-07T11:00:52.811Z,9.29
2017-11-07T11:03:20.319Z,9.15
2017-11-07T11:05:47.818Z,9.00
2017-11-07T11:08:15.295Z,9.02
2017-11-07T11:10:42.824Z,8.97
2017-11-07T11:13:10.312Z,8.85
2017-11-07T11:15:37.802Z,8.73
2017-11-07T11:18:05.326Z,8.54
2017-11-07T11:20:32.807Z,8.42
2017-11-07T11:23:00.311Z,8.29
2017-11-07T11:25:27.824Z,8.17
2017-11-07T11:27:55.313Z,8.12
2017-11-07T11:30:22.802Z,8.13
2017-11-07T11:32:50.347Z,8.06
2017-11-07T11:35:17.834Z,7.97
2017-11-07T11:37:45.321Z,8.04
2017-11-07T11:40:12.852Z,8.09
2017-11-07T11:42:40.340Z,8.06
2017-11-07T11:45:07.844Z,8.03
2017-11-07T11:47:35.361Z,8.02
2017-11-07T11:50:02.849Z,8.16
2017-11-07T11:52:30.427Z,8.34
2017-11-07T11:54:57.931Z,8.47
2017-11-07T11:57:25.728Z,8.62
2017-11-07T11:59:53.208Z,8.77
2017-11-07T12:02:20.747Z,8.80
2017-11-07T12:04:48.308Z,8.92
2017-11-07T12:07:15.793Z,9.02
2017-11-07T12:09:43.280Z,9.09
2017-11-07T12:12:10.813Z,9.24
2017-11-07T12:14:38.398Z,9.19
2017-11-07T12:17:05.889Z,9.24
2017-11-07T12:19:33.429Z,9.30
2017-11-07T12:22:00.915Z,9.37
2017-11-07T12:24:28.495Z,9.14
2017-11-07T12:26:56.019Z,9.01
2017-11-07T12:29:23.588Z,9.17
2017-11-07T12:31:51.969Z,9.35
2017-11-07T12:34:19.520Z,9.37
2017-11-07T12:36:47.091Z,9.36
2017-11-07T12:39:14.580Z,9.34
2017-11-07T12:41:42.104Z,9.28
2017-11-07T12:44:09.589Z,8.99
2017-11-07T12:46:37.072Z,8.61
2017-11-07T12:49:04.579Z,8.42
2017-11-07T12:54:28.872Z,8.39
2017-11-07T12:56:56.440Z,8.43
2017-11-07T12:59:23.932Z,8.48
2017-11-07T13:01:51.461Z,8.49
2017-11-07T13:04:18.953Z,8.47
2017-11-07T13:06:46.444Z,8.51
2017-11-07T13:09:13.970Z,8.65
2017-11-07T13:11:41.459Z,8.78
2017-11-07T13:14:08.947Z,8.71
2017-11-07T13:16:36.448Z,8.70
2017-11-07T13:19:04.167Z,8.69
2017-11-07T13:21:31.723Z,8.51
2017-11-07T13:23:59.297Z,8.48
2017-11-07T13:26:26.820Z,8.40
2017-11-07T13:28:54.305Z,8.36
2017-11-07T13:31:21.784Z,8.42
2017-11-07T13:33:49.319Z,8.39
2017-11-07T13:36:16.797Z,8.35
2017-11-07T13:38:44.275Z,8.42
2017-11-07T13:41:11.812Z,8.38
2017-11-07T13:43:39.297Z,8.34
2017-11-07T13:46:06.780Z,8.35
2017-11-07T13:48:34.310Z,8.30
2017-11-07T13:51:01.803Z,8.32
2017-11-07T13:53:29.367Z,8.31
2017-11-07T13:55:56.909Z,8.41
2017-11-07T13:58:24.492Z,8.44
2017-11-07T14:00:52.057Z,8.38
2017-11-07T14:03:19.576Z,8.28
2017-11-07T14:05:47.058Z,8.24
2017-11-07T14:08:14.640Z,8.23
2017-11-07T14:10:42.191Z,8.26
2017-11-07T14:13:09.730Z,8.29
2017-11-07T14:15:37.256Z,8.31
2017-11-07T14:18:04.738Z,8.29
2017-11-07T14:20:32.221Z,8.24
2017-11-07T14:22:59.733Z,8.23
2017-11-07T14:25:27.265Z,8.20
2017-11-07T14:27:54.809Z,8.20
2017-11-07T14:30:22.311Z,8.22
2017-11-07T14:32:49.798Z,8.21
2017-11-07T14:35:17.320Z,8.26
2017-11-07T14:37:44.813Z,8.26
2017-11-07T14:40:12.296Z,8.21
2017-11-07T14:42:39.871Z,8.15
2017-11-07T14:45:07.360Z,8.13
2017-11-07T14:47:34.863Z,8.11
2017-11-07T14:50:02.522Z,8.09
2017-11-07T14:52:30.091Z,8.08
2017-11-07T14:54:57.664Z,8.10
2017-11-07T14:57:25.173Z,8.12
2017-11-07T14:59:52.683Z,8.09
2017-11-07T15:02:20.243Z,8.11
2017-11-07T15:04:47.716Z,8.08
2017-11-07T15:07:15.442Z,8.10
2017-11-07T15:09:42.929Z,8.12
2017-11-07T15:12:10.416Z,8.10
2017-11-07T15:14:38.104Z,8.07
2017-11-07T15:17:05.600Z,8.04
2017-11-07T15:19:33.102Z,8.03
2017-11-07T15:22:00.614Z,8.00
2017-11-07T15:24:28.119Z,8.01
2017-11-07T15:26:55.597Z,8.04
2017-11-07T15:29:23.106Z,8.02
2017-11-07T15:31:50.650Z,7.97
2017-11-07T15:34:18.187Z,8.02
2017-11-07T15:36:45.746Z,8.00
2017-11-07T15:39:13.230Z,7.99
2017-11-07T15:41:40.965Z,7.92
2017-11-07T15:44:08.445Z,7.95
2017-11-07T15:46:35.989Z,7.93
2017-11-07T15:49:03.516Z,7.92
2017-11-07T15:51:30.996Z,7.93
2017-11-07T15:53:58.478Z,7.92
2017-11-07T15:56:26.006Z,7.85
2017-11-07T15:58:53.493Z,7.89
2017-11-07T16:01:20.978Z,7.89
2017-11-07T16:03:48.708Z,7.90
2017-11-07T16:06:16.255Z,7.87
2017-11-07T16:08:43.812Z,7.91
2017-11-07T16:11:11.319Z,7.93
2017-11-07T16:13:38.796Z,7.91
2017-11-07T16:16:06.393Z,7.94
2017-11-07T16:18:34.044Z,7.92
2017-11-07T16:21:01.527Z,7.90
2017-11-07T16:23:29.019Z,7.90
2017-11-07T16:25:56.629Z,7.89
2017-11-07T16:28:24.119Z,7.94
2017-11-07T16:30:51.637Z,7.93
2017-11-07T16:33:19.344Z,7.87
2017-11-07T16:35:46.865Z,7.88
2017-11-07T16:38:14.355Z,7.89
2017-11-07T16:40:41.869Z,7.90
2017-11-07T16:43:09.354Z,7.91
2017-11-07T16:45:36.831Z,7.94
2017-11-07T16:48:04.355Z,7.99
2017-11-07T16:50:31.915Z,8.07
2017-11-07T16:52:59.431Z,8.13
2017-11-07T16:55:26.914Z,8.15
2017-11-07T16:57:54.387Z,8.17
2017-11-07T17:00:21.902Z,8.13
2017-11-07T17:02:49.388Z,8.03
2017-11-07T17:05:16.875Z,8.02
2017-11-07T17:07:44.409Z,8.01
2017-11-07T17:10:11.903Z,7.96
2017-11-07T17:12:39.443Z,7.95
2017-11-07T17:15:07.100Z,7.91
2017-11-07T17:17:34.659Z,7.94
2017-11-07T17:20:02.150Z,7.93
2017-11-07T17:22:29.775Z,7.96
2017-11-07T17:24:57.276Z,8.01
2017-11-07T17:27:24.764Z,8.05
2017-11-07T17:29:52.287Z,8.01
2017-11-07T17:32:19.778Z,7.98
2017-11-07T17:34:47.269Z,8.01
2017-11-07T17:37:14.928Z,8.04
2017-11-07T17:39:42.412Z,8.03
2017-11-07T17:42:09.906Z,7.96
2017-11-07T17:44:37.495Z,7.98
2017-11-07T17:47:04.983Z,7.94
2017-11-07T17:49:32.527Z,7.94
2017-11-07T17:52:00.077Z,7.94
2017-11-07T17:54:27.656Z,7.96
2017-11-07T17:56:55.196Z,8.00
2017-11-07T17:59:22.755Z,8.03
2017-11-07T18:01:50.563Z,8.11
2017-11-07T18:04:18.060Z,8.20
2017-11-07T18:06:45.591Z,8.19
2017-11-07T18:09:13.077Z,8.07
2017-11-07T18:11:40.559Z,7.98
2017-11-07T18:14:08.132Z,7.98
2017-11-07T18:16:35.614Z,7.98
2017-11-07T18:19:03.106Z,7.94
2017-11-07T18:21:30.660Z,7.97
2017-11-07T18:23:58.245Z,7.99
2017-11-07T18:26:25.733Z,8.03
2017-11-07T18:28:53.292Z,8.06
2017-11-07T18:31:20.791Z,8.10
2017-11-07T18:33:48.290Z,8.08
2017-11-07T18:36:15.837Z,8.05
2017-11-07T18:38:43.332Z,8.03
2017-11-07T18:41:10.823Z,8.03
2017-11-07T18:43:38.513Z,8.05
2017-11-07T18:46:06.016Z,8.06
2017-11-07T18:48:33.502Z,8.05
2017-11-07T18:51:01.020Z,8.03
2017-11-07T18:53:28.550Z,8.08
2017-11-07T18:55:56.084Z,8.11
2017-11-07T18:58:23.573Z,8.08
2017-11-07T19:00:51.057Z,8.09
2017-11-07T19:03:18.688Z,7.99
2017-11-07T19:05:46.196Z,7.95
2017-11-07T19:08:13.684Z,8.00
2017-11-07T19:10:41.225Z,8.02
2017-11-07T19:13:08.741Z,7.99
2017-11-07T19:15:36.225Z,8.01
2017-11-07T19:18:03.757Z,7.99
2017-11-07T19:20:31.248Z,7.97
2017-11-07T19:22:58.741Z,7.96
2017-11-07T19:25:26.319Z,7.87
2017-11-07T19:27:53.817Z,7.90
2017-11-07T19:30:21.303Z,7.93
2017-11-07T19:32:48.834Z,7.90
2017-11-07T19:35:16.592Z,7.92
2017-11-07T19:37:44.099Z,7.92
2017-11-07T19:40:11.669Z,7.95
2017-11-07T19:42:39.228Z,7.99
2017-11-07T19:45:06.884Z,8.04
2017-11-07T19:47:34.377Z,8.07
2017-11-07T19:50:01.907Z,8.02
2017-11-07T19:52:29.424Z,7.99
2017-11-07T19:54:57.020Z,7.94
2017-11-07T19:57:24.556Z,7.96
2017-11-07T19:59:52.054Z,7.93
2017-11-07T20:02:19.559Z,7.90
2017-11-07T20:04:47.160Z,7.88
2017-11-07T20:07:14.651Z,7.85
2017-11-07T20:09:42.132Z,7.82
2017-11-07T20:12:09.670Z,7.86
2017-11-07T20:14:37.168Z,7.86
2017-11-07T20:17:04.665Z,7.89
2017-11-07T20:19:32.312Z,7.90
2017-11-07T20:21:59.800Z,7.87
2017-11-07T20:24:27.301Z,7.86
2017-11-07T20:26:54.904Z,7.95
2017-11-07T20:29:22.433Z,8.02
2017-11-07T20:31:49.934Z,8.09
2017-11-07T20:34:17.484Z,8.10
2017-11-07T20:36:45.021Z,8.05
2017-11-07T20:39:12.519Z,8.03
2017-11-07T20:41:40.037Z,8.05
2017-11-07T20:44:07.609Z,8.06
2017-11-07T20:46:35.105Z,8.05
2017-11-07T20:49:02.622Z,8.06
2017-11-07T20:51:30.116Z,8.09
2017-11-07T20:53:57.646Z,8.09
2017-11-07T20:56:25.184Z,8.04
2017-11-07T20:58:52.752Z,8.02
2017-11-07T21:01:20.248Z,8.03
2017-11-07T21:03:47.989Z,8.03
2017-11-07T21:06:15.476Z,8.03
2017-11-07T21:08:42.973Z,8.07
2017-11-07T21:11:10.543Z,8.13
2017-11-07T21:13:38.104Z,8.20
2017-11-07T21:16:05.611Z,8.26
2017-11-07T21:18:33.144Z,8.26
2017-11-07T21:21:00.706Z,8.21
2017-11-07T21:23:28.194Z,8.17
2017-11-07T21:25:55.903Z,8.14
2017-11-07T21:28:23.400Z,8.14
2017-11-07T21:30:50.883Z,8.21
2017-11-07T21:33:19.349Z,8.22
2017-11-07T21:35:46.844Z,8.22
2017-11-07T21:38:14.375Z,8.18
2017-11-07T21:40:41.864Z,8.15
2017-11-07T21:43:09.430Z,8.14
2017-11-07T21:45:36.991Z,8.03
2017-11-07T21:48:04.552Z,7.98
2017-11-07T21:50:32.047Z,7.95
2017-11-07T21:52:59.587Z,7.89
2017-11-07T21:55:27.075Z,7.84
2017-11-07T21:57:54.575Z,7.89
2017-11-07T22:00:22.140Z,7.94
2017-11-07T22:02:49.629Z,8.00
2017-11-07T22:05:17.121Z,8.01
2017-11-07T22:07:44.632Z,8.02
2017-11-07T22:10:17.203Z,8.03
2017-11-07T22:12:44.702Z,7.99
2017-11-07T22:15:12.200Z,8.04
2017-11-07T22:17:39.748Z,8.07
2017-11-07T22:20:08.026Z,8.11
2017-11-07T22:22:41.147Z,8.09
2017-11-07T22:25:08.641Z,8.10
2017-11-07T22:27:36.167Z,8.05
2017-11-07T22:30:03.700Z,8.01
2017-11-07T22:32:31.183Z,8.07
2017-11-07T22:34:58.705Z,8.02
2017-11-07T22:37:26.196Z,7.93
2017-11-07T22:39:53.688Z,7.91
2017-11-07T22:42:21.403Z,7.91
2017-11-07T22:44:48.912Z,7.90
2017-11-07T22:47:16.399Z,7.87
2017-11-07T22:49:43.911Z,7.85
2017-11-07T22:52:11.399Z,7.87
2017-11-07T22:54:38.954Z,7.88
2017-11-07T22:57:06.451Z,7.88
2017-11-07T22:59:33.935Z,7.88
2017-11-07T23:02:01.565Z,7.84
2017-11-07T23:04:30.864Z,7.86
2017-11-07T23:06:58.355Z,7.88
2017-11-07T23:09:25.874Z,7.84
2017-11-07T23:11:54.144Z,7.85
2017-11-07T23:14:21.632Z,7.83
2017-11-07T23:16:49.170Z,7.81
2017-11-07T23:19:16.692Z,7.84
2017-11-07T23:21:44.182Z,7.79
2017-11-07T23:24:11.856Z,7.74
2017-11-07T23:26:39.477Z,7.65
2017-11-07T23:29:07.102Z,7.59
2017-11-07T23:31:34.617Z,7.56
2017-11-07T23:34:02.188Z,7.56
2017-11-07T23:36:29.774Z,7.55
2017-11-07T23:38:57.441Z,7.61
2017-11-07T23:41:24.943Z,7.58
2017-11-07T23:43:52.423Z,7.53
2017-11-07T23:46:19.940Z,7.52
2017-11-07T23:48:47.430Z,7.49
2017-11-07T23:51:14.912Z,7.45
2017-11-07T23:53:42.457Z,7.43
2017-11-07T23:56:09.951Z,7.41
2017-11-07T23:58:37.436Z,7.36
